Time;durP1;ratioP1;P1;durP2;ratioP2;P2;SDS_P1;SDS_P2;PMS_P1;PMS_P2;Temp;Humidity;BMP_temperature;BMP_pressure;BME280_temperature;BME280_humidity;BME280_pressure;Samples;Min_cycle;Max_cycle;Signal;HPM_P1;HPM_P2
2022/01/10 00:01:53;;;;;;;147.07;63.20;;;;;;;-3.00;80.16;97273.77;1722007;82;22104;-57
2022/01/10 00:04:20;;;;;;;126.38;53.42;;;;;;;-3.03;80.93;97276.05;1712561;83;21490;-56
2022/01/10 00:06:47;;;;;;;115.17;48.73;;;;;;;-2.98;80.10;97273.07;1723375;82;21018;-56
2022/01/10 00:09:14;;;;;;;129.78;53.30;;;;;;;-3.02;79.95;97270.53;1712896;83;20983;-56
2022/01/10 00:11:41;;;;;;;119.87;57.20;;;;;;;-3.12;81.03;97271.50;1716613;82;21396;-56
2022/01/10 00:14:08;;;;;;;131.35;58.17;;;;;;;-3.15;81.06;97274.06;1732348;80;21025;-56
2022/01/10 00:16:36;;;;;;;118.67;51.42;;;;;;;-3.14;81.00;97275.69;1717958;82;37394;-55
2022/01/10 00:19:03;;;;;;;121.90;55.45;;;;;;;-3.06;80.12;97277.80;1716914;81;20989;-56
2022/01/10 00:21:30;;;;;;;127.58;50.52;;;;;;;-3.09;79.85;97280.86;1731306;82;21024;-56
2022/01/10 00:23:56;;;;;;;116.37;51.05;;;;;;;-3.06;80.80;97277.29;1737414;82;21068;-56
2022/01/10 00:26:23;;;;;;;124.58;48.25;;;;;;;-3.12;81.14;97284.75;1727373;82;20996;-56
2022/01/10 00:28:50;;;;;;;93.33;37.38;;;;;;;-3.09;80.75;97290.13;1737256;82;20985;-56
2022/01/10 00:31:18;;;;;;;103.55;44.00;;;;;;;-3.14;80.10;97294.76;1721697;82;21020;-56
2022/01/10 00:33:45;;;;;;;106.22;45.17;;;;;;;-3.22;79.76;97295.80;1737176;82;20981;-56
2022/01/10 00:36:12;;;;;;;101.42;44.45;;;;;;;-3.25;80.82;97293.55;1724907;82;21059;-56
2022/01/10 00:38:39;;;;;;;112.37;48.60;;;;;;;-3.30;81.34;97297.36;1712756;82;21258;-56
2022/01/10 00:41:06;;;;;;;120.75;50.45;;;;;;;-3.29;81.30;97296.84;1712232;82;20972;-56
2022/01/10 00:43:39;;;;;;;105.03;46.25;;;;;;;-3.29;81.19;97302.14;1712727;82;21439;-56
2022/01/10 00:46:03;;;;;;;104.17;44.42;;;;;;;-3.25;80.69;97310.78;1712311;82;21083;-56
2022/01/10 00:48:30;;;;;;;100.95;43.28;;;;;;;-3.30;80.98;97315.91;1744530;80;20997;-56
2022/01/10 00:50:57;;;;;;;95.47;40.45;;;;;;;-3.35;81.33;97322.33;1758455;80;22110;-56
2022/01/10 00:53:25;;;;;;;104.30;45.45;;;;;;;-3.38;80.94;97317.97;1737117;82;21473;-57
2022/01/10 00:55:52;;;;;;;102.92;46.13;;;;;;;-3.43;81.12;97318.06;1737027;82;21359;-56
2022/01/10 00:58:19;;;;;;;112.72;47.20;;;;;;;-3.46;81.14;97320.33;1737175;82;22177;-56
2022/01/10 01:00:46;;;;;;;99.62;42.70;;;;;;;-3.46;81.10;97328.28;1736725;82;21041;-56
2022/01/10 01:03:13;;;;;;;95.35;40.70;;;;;;;-3.46;80.46;97325.11;1715672;82;21054;-56
2022/01/10 01:05:42;;;;;;;97.95;43.80;;;;;;;-3.51;80.21;97319.61;1714630;82;21058;-56
2022/01/10 01:08:10;;;;;;;102.38;43.25;;;;;;;-3.60;80.46;97327.98;1737036;82;21060;-56
2022/01/10 01:11:03;;;;;;;101.82;43.73;;;;;;;-3.65;81.21;97328.63;1737073;82;21512;-56
2022/01/10 01:13:22;;;;;;;104.32;40.35;;;;;;;-3.70;81.74;97330.55;1733803;82;21024;-56
2022/01/10 01:24:06;;;;;;;74.72;31.02;;;;;;;-3.83;81.29;97337.20;1737122;82;21662;-56
2022/01/10 01:26:41;;;;;;;70.08;32.30;;;;;;;-3.80;80.43;97335.45;1736598;82;21017;-56
2022/01/10 01:29:10;;;;;;;74.12;35.03;;;;;;;-3.85;80.11;97345.83;1737241;82;22150;-56
2022/01/10 01:31:37;;;;;;;;;;;;;;;-3.90;80.65;97339.55;1721117;82;21063;-56
2022/01/10 01:34:04;;;;;;;95.42;38.23;;;;;;;-3.92;80.50;97340.27;1737506;82;20198;-56
2022/01/10 01:36:32;;;;;;;71.57;32.60;;;;;;;-3.98;80.27;97336.59;1736972;82;21076;-56
2022/01/10 01:38:59;;;;;;;78.47;33.85;;;;;;;-3.97;80.17;97351.45;1737359;82;21083;-56
2022/01/10 01:43:54;;;;;;;61.83;25.82;;;;;;;-3.91;80.96;97343.21;1737452;82;20978;-56
2022/01/10 01:46:21;;;;;;;65.28;29.18;;;;;;;-3.90;80.02;97348.30;1734352;82;21154;-56
2022/01/10 01:48:49;;;;;;;69.95;32.03;;;;;;;-4.00;80.03;97350.03;1752376;80;20986;-56
2022/01/10 01:51:16;;;;;;;63.63;28.87;;;;;;;-4.04;81.01;97356.73;1686461;84;21044;-56
2022/01/10 01:53:44;;;;;;;72.55;31.45;;;;;;;-3.99;80.29;97354.30;1702086;83;21993;-56
2022/01/10 01:56:11;;;;;;;71.02;31.20;;;;;;;-4.08;80.88;97354.71;1729135;82;21447;-56
2022/01/10 01:58:38;;;;;;;74.20;32.50;;;;;;;-4.10;81.05;97357.56;1712792;83;21459;-56
2022/01/10 02:01:06;;;;;;;71.42;31.87;;;;;;;-4.20;82.41;97357.13;1719198;82;21021;-56
2022/01/10 02:03:33;;;;;;;67.53;27.80;;;;;;;-4.16;81.95;97362.84;1737240;82;20985;-56
2022/01/10 02:06:01;;;;;;;67.55;27.30;;;;;;;-4.15;81.14;97356.53;1737139;82;21406;-56
2022/01/10 02:08:27;;;;;;;62.88;30.20;;;;;;;-4.24;80.96;97361.72;1737046;82;21020;-56
2022/01/10 02:10:54;;;;;;;73.25;30.92;;;;;;;-4.34;81.59;97366.08;1732926;82;21008;-56
2022/01/10 02:13:22;;;;;;;59.95;30.57;;;;;;;-4.39;81.74;97373.28;1736993;82;21421;-56
2022/01/10 02:15:56;;;;;;;77.00;33.00;;;;;;;-4.38;80.93;97374.09;1737208;82;21540;-56
2022/01/10 02:18:18;;;;;;;107.63;40.50;;;;;;;-4.51;80.58;97382.02;1714151;82;21296;-56
2022/01/10 02:20:45;;;;;;;77.05;32.93;;;;;;;-4.69;80.30;97384.71;1698472;82;21646;-56
2022/01/10 02:23:12;;;;;;;70.70;30.35;;;;;;;-4.79;80.83;97387.39;1712399;82;21479;-56
2022/01/10 02:25:39;;;;;;;69.95;28.00;;;;;;;-4.83;80.80;97392.27;1714956;82;21062;-56
2022/01/10 02:28:06;;;;;;;69.05;29.90;;;;;;;-4.88;80.96;97392.03;1737056;82;21061;-56
2022/01/10 02:30:33;;;;;;;61.70;27.52;;;;;;;-4.92;81.20;97400.06;1735637;80;21378;-56
2022/01/10 02:33:01;;;;;;;61.23;28.27;;;;;;;-4.94;80.95;97405.55;1731856;82;21004;-56
2022/01/10 02:35:38;;;;;;;61.95;27.90;;;;;;;-4.96;81.82;97404.09;1737208;82;21009;-56
2022/01/10 02:38:03;;;;;;;63.23;28.50;;;;;;;-4.95;81.20;97404.43;1717059;82;21016;-56
2022/01/10 02:40:32;;;;;;;60.45;27.22;;;;;;;-4.97;82.46;97405.92;1712520;82;21022;-56
2022/01/10 02:42:59;;;;;;;51.50;23.98;;;;;;;-4.96;82.98;97408.06;1712539;82;21466;-56
2022/01/10 02:45:26;;;;;;;52.70;27.07;;;;;;;-4.96;82.45;97407.55;1712720;82;21014;-56
2022/01/10 02:47:53;;;;;;;56.77;25.08;;;;;;;-4.93;81.52;97405.86;1728688;80;20981;-56
2022/01/10 02:50:21;;;;;;;58.90;25.08;;;;;;;-4.93;81.76;97404.53;1767770;80;21437;-56
2022/01/10 02:52:48;;;;;;;50.15;25.32;;;;;;;-4.88;82.41;97411.34;1737023;82;21559;-56
2022/01/10 02:55:15;;;;;;;48.85;22.52;;;;;;;-4.82;81.70;97413.72;1737109;82;21418;-56
2022/01/10 02:57:43;;;;;;;48.28;22.37;;;;;;;-4.86;81.61;97411.99;1720625;82;21033;-56
2022/01/10 03:00:15;;;;;;;40.38;19.87;;;;;;;-4.86;82.21;97417.79;1714222;82;20994;-55
2022/01/10 03:02:43;;;;;;;42.80;20.57;;;;;;;-4.86;83.20;97417.79;1736406;82;21052;-56
2022/01/10 03:05:11;;;;;;;47.50;21.77;;;;;;;-4.83;81.85;97419.52;1737129;82;21012;-56
2022/01/10 03:07:38;;;;;;;40.48;19.57;;;;;;;-4.89;83.31;97412.88;1714776;82;22122;-55
2022/01/10 03:10:06;;;;;;;50.33;21.75;;;;;;;-4.86;83.16;97421.75;1713340;82;21467;-56
2022/01/10 03:12:35;;;;;;;40.43;18.12;;;;;;;-4.84;83.41;97425.82;1722235;82;21427;-56
2022/01/10 03:15:03;;;;;;;44.40;20.52;;;;;;;-4.79;82.68;97429.18;1712783;82;21011;-56
2022/01/10 03:17:30;;;;;;;54.08;24.47;;;;;;;-4.84;81.72;97428.47;1726901;82;21634;-56
2022/01/10 03:19:57;;;;;;;49.88;23.60;;;;;;;-4.94;81.38;97429.34;1737104;82;21409;-56
2022/01/10 03:22:26;;;;;;;52.45;23.90;;;;;;;-5.10;81.14;97430.98;1732714;82;21025;-56
2022/01/10 03:24:55;;;;;;;55.05;25.52;;;;;;;-5.20;81.59;97437.94;1737333;82;27970;-56
2022/01/10 03:27:23;;;;;;;54.60;27.37;;;;;;;-5.25;81.20;97432.91;1732556;82;20973;-56
2022/01/10 03:29:51;;;;;;;59.83;26.82;;;;;;;-5.31;81.25;97441.09;1732142;82;21024;-56
2022/01/10 03:32:18;;;;;;;53.30;25.45;;;;;;;-5.37;81.47;97443.71;1708449;82;21692;-56
2022/01/10 03:34:44;;;;;;;48.58;24.00;;;;;;;-5.42;81.65;97445.59;1712585;82;21396;-56
2022/01/10 03:37:11;;;;;;;49.18;22.98;;;;;;;-5.42;81.62;97451.69;1712491;82;21026;-56
2022/01/10 03:39:39;;;;;;;52.35;23.87;;;;;;;-5.48;81.25;97454.27;1712654;83;21046;-56
2022/01/10 03:42:06;;;;;;;55.25;24.32;;;;;;;-5.62;81.33;97457.84;1729552;82;21079;-56
2022/01/10 03:44:32;;;;;;;57.45;23.38;;;;;;;-5.73;81.46;97459.96;1737216;82;22164;-56
2022/01/10 03:46:59;;;;;;;56.02;23.20;;;;;;;-5.87;83.58;97462.19;1721010;82;21180;-56
2022/01/10 03:49:26;;;;;;;50.00;25.62;;;;;;;-5.80;82.82;97464.39;1768181;80;20985;-55
2022/01/10 03:51:53;;;;;;;51.28;23.95;;;;;;;-5.76;82.93;97464.31;1744253;80;21025;-55
2022/01/10 03:54:20;;;;;;;48.58;22.15;;;;;;;-5.75;82.20;97478.33;1737145;82;20996;-57
2022/01/10 03:56:48;;;;;;;49.90;22.87;;;;;;;-5.88;83.80;97476.39;1729619;82;22072;-56
2022/01/10 03:59:15;;;;;;;48.87;23.05;;;;;;;-5.87;83.79;97483.30;1712521;83;21433;-56
2022/01/10 04:01:41;;;;;;;48.17;23.02;;;;;;;-5.87;83.85;97488.58;1725167;82;21497;-56
2022/01/10 04:04:08;;;;;;;57.50;23.70;;;;;;;-5.83;83.15;97489.83;1737048;82;21012;-56
2022/01/10 04:06:35;;;;;;;55.70;26.52;;;;;;;-5.84;83.46;97492.66;1729164;81;20963;-56
2022/01/10 04:09:03;;;;;;;46.75;21.55;;;;;;;-5.81;82.80;97489.16;1732717;82;21373;-56
2022/01/10 04:11:30;;;;;;;46.80;24.05;;;;;;;-5.85;82.07;97497.62;1719461;82;21059;-56
2022/01/10 04:13:57;;;;;;;54.35;23.75;;;;;;;-5.92;82.04;97500.73;1720374;81;21043;-56
2022/01/10 04:16:24;;;;;;;51.73;25.00;;;;;;;-5.97;82.10;97502.63;1719883;82;21396;-56
2022/01/10 04:18:51;;;;;;;52.13;24.87;;;;;;;-6.05;82.00;97506.20;1712426;83;21023;-55
2022/01/10 04:21:18;;;;;;;57.85;25.08;;;;;;;-6.09;82.84;97506.74;1731652;81;21009;-55
2022/01/10 04:23:45;;;;;;;62.90;25.02;;;;;;;-6.11;83.37;97513.53;1737074;82;21051;-55
2022/01/10 04:26:11;;;;;;;56.00;26.45;;;;;;;-6.08;83.01;97518.92;1718921;82;21058;-56
2022/01/10 04:28:38;;;;;;;65.95;28.27;;;;;;;-6.08;82.90;97514.97;1712372;83;21454;-56
2022/01/10 04:31:05;;;;;;;71.30;28.57;;;;;;;-6.08;82.53;97523.70;1712699;82;20983;-56
2022/01/10 04:33:32;;;;;;;64.60;29.65;;;;;;;-6.21;82.85;97528.02;1712590;82;21609;-55
2022/01/10 04:35:59;;;;;;;62.25;27.22;;;;;;;-6.19;82.33;97529.47;1722215;82;20988;-56
2022/01/10 04:38:26;;;;;;;54.83;26.33;;;;;;;-6.29;82.53;97536.86;1736981;82;21480;-55
2022/01/10 04:40:53;;;;;;;62.83;28.05;;;;;;;-6.37;82.96;97537.78;1736887;82;21506;-56
2022/01/10 04:43:20;;;;;;;56.30;25.62;;;;;;;-6.40;82.83;97539.98;1736997;82;21012;-56
2022/01/10 04:45:47;;;;;;;61.08;28.92;;;;;;;-6.42;82.28;97535.37;1733542;82;21431;-56
2022/01/10 04:48:18;;;;;;;55.90;26.95;;;;;;;-6.43;83.05;97542.45;1737785;80;20963;-56
2022/01/10 04:53:15;;;;;;;51.37;24.90;;;;;;;-6.38;82.19;97546.70;1737031;82;21000;-56
2022/01/10 04:55:42;;;;;;;61.25;27.95;;;;;;;-6.34;82.00;97553.22;1733928;82;21076;-56
2022/01/10 04:58:09;;;;;;;80.85;34.03;;;;;;;-6.41;82.99;97556.77;1733268;82;21423;-56
2022/01/10 05:00:36;;;;;;;69.00;30.35;;;;;;;-6.41;83.88;97559.41;1737008;82;20993;-56
2022/01/10 05:03:03;;;;;;;62.60;28.65;;;;;;;-6.44;83.72;97567.19;1713407;82;21079;-56
2022/01/10 05:05:29;;;;;;;72.35;32.23;;;;;;;-6.41;84.08;97566.00;1708480;82;21022;-57
2022/01/10 05:07:56;;;;;;;74.42;33.20;;;;;;;-6.38;83.96;97570.42;1712281;82;21003;-56
2022/01/10 05:10:23;;;;;;;78.52;36.50;;;;;;;-6.32;83.43;97577.61;1712762;82;21672;-55
2022/01/10 05:12:51;;;;;;;83.40;36.77;;;;;;;-6.25;83.66;97579.80;1712130;82;21692;-56
2022/01/10 05:15:18;;;;;;;93.78;38.17;;;;;;;-6.26;83.47;97587.41;1712621;82;21070;-55
2022/01/10 05:17:45;;;;;;;88.40;35.00;;;;;;;-6.33;83.27;97592.27;1712619;82;20999;-56
2022/01/10 05:20:12;;;;;;;77.25;33.15;;;;;;;-6.38;83.38;97593.34;1712528;82;21019;-55
2022/01/10 05:22:40;;;;;;;68.80;31.75;;;;;;;-6.30;83.38;97595.88;1735084;82;21515;-56
2022/01/10 05:25:07;;;;;;;62.03;29.80;;;;;;;-6.22;83.39;97602.88;1729209;82;21539;-55
2022/01/10 05:27:34;;;;;;;65.70;30.82;;;;;;;-6.20;83.28;97604.33;1709971;82;21539;-56
2022/01/10 05:30:01;;;;;;;69.27;29.50;;;;;;;-6.23;83.04;97611.30;1712559;82;20998;-56
2022/01/10 05:32:28;;;;;;;63.40;29.42;;;;;;;-6.28;82.53;97613.15;1726538;82;21033;-55
2022/01/10 05:34:55;;;;;;;67.53;28.85;;;;;;;-6.47;82.07;97620.30;1737249;82;21056;-55
2022/01/10 05:37:22;;;;;;;69.70;31.90;;;;;;;-6.64;81.90;97635.47;1717329;82;21042;-55
2022/01/10 05:39:49;;;;;;;71.28;32.53;;;;;;;-6.75;82.25;97628.01;1712216;83;21045;-56
2022/01/10 05:42:18;;;;;;;65.85;29.48;;;;;;;-6.77;82.32;97643.16;1731074;82;21056;-56
2022/01/10 05:44:45;;;;;;;60.25;29.23;;;;;;;-6.74;82.72;97646.77;1737413;82;21020;-56
2022/01/10 05:47:11;;;;;;;67.32;30.62;;;;;;;-6.75;81.98;97653.05;1714854;82;21491;-56
2022/01/10 05:49:45;;;;;;;106.78;47.73;;;;;;;-6.81;82.16;97660.34;1772719;80;20998;-55
2022/01/10 05:52:07;;;;;;;120.85;52.15;;;;;;;-6.82;82.49;97667.42;1669558;84;21470;-56
2022/01/10 05:54:34;;;;;;;101.87;43.55;;;;;;;-6.86;82.29;97667.95;1732524;82;20996;-56
2022/01/10 05:57:01;;;;;;;124.38;58.50;;;;;;;-6.86;81.96;97664.81;1736277;82;21028;-56
2022/01/10 05:59:28;;;;;;;60.55;32.10;;;;;;;-6.83;82.17;97678.97;1736875;82;21452;-55
2022/01/10 06:01:55;;;;;;;67.08;32.83;;;;;;;-6.84;81.84;97683.89;1729816;82;21060;-56
2022/01/10 06:04:22;;;;;;;74.47;33.15;;;;;;;-6.80;82.22;97682.23;1737064;82;21441;-56
2022/01/10 06:06:49;;;;;;;64.12;29.82;;;;;;;-6.79;82.51;97693.09;1736855;82;21068;-55
2022/01/10 06:09:16;;;;;;;63.95;30.10;;;;;;;-6.75;82.26;97699.16;1737120;82;21083;-55
2022/01/10 06:11:43;;;;;;;67.00;29.12;;;;;;;-6.83;82.39;97700.05;1736951;82;21401;-56
2022/01/10 06:14:10;;;;;;;58.83;27.65;;;;;;;-6.91;82.87;97701.93;1735223;82;21063;-56
2022/01/10 06:16:36;;;;;;;58.38;28.12;;;;;;;-6.89;81.86;97718.38;1708999;82;21445;-56
2022/01/10 06:19:03;;;;;;;60.52;26.97;;;;;;;-7.03;82.99;97717.31;1717054;82;21028;-56
2022/01/10 06:21:30;;;;;;;89.95;41.53;;;;;;;-6.98;83.20;97718.93;1736955;82;21007;-56
2022/01/10 06:23:57;;;;;;;75.92;33.75;;;;;;;-6.90;83.61;97726.78;1725656;82;21347;-55
2022/01/10 06:26:24;;;;;;;121.15;50.80;;;;;;;-6.91;82.77;97723.00;1720794;82;21469;-56
2022/01/10 06:28:51;;;;;;;62.62;30.88;;;;;;;-6.84;83.33;97730.50;1732310;82;21009;-55
2022/01/10 06:31:18;;;;;;;55.20;28.67;;;;;;;-6.82;81.88;97733.30;1665767;85;21021;-56
2022/01/10 06:33:45;;;;;;;78.20;38.92;;;;;;;-6.89;81.75;97736.31;1720975;82;21032;-57
2022/01/10 06:36:11;;;;;;;52.50;26.37;;;;;;;-6.79;81.95;97740.52;1707399;82;21316;-58
2022/01/10 06:38:38;;;;;;;55.65;28.45;;;;;;;-6.76;81.88;97750.70;1730381;82;21675;-58
2022/01/10 06:41:05;;;;;;;53.68;24.07;;;;;;;-6.71;81.99;97758.91;1735546;82;21465;-58
2022/01/10 06:43:33;;;;;;;85.07;33.10;;;;;;;-6.73;81.87;97755.64;1737183;82;21030;-58
2022/01/10 06:46:00;;;;;;;115.77;51.13;;;;;;;-6.79;81.90;97763.74;1737094;82;21031;-56
2022/01/10 06:48:26;;;;;;;91.45;42.75;;;;;;;-6.81;81.99;97768.37;1747240;80;21402;-57
2022/01/10 06:50:54;;;;;;;80.12;41.37;;;;;;;-6.84;82.32;97770.02;1718651;82;21028;-56
2022/01/10 06:53:21;;;;;;;99.58;44.00;;;;;;;-6.83;82.75;97784.87;1737352;82;21044;-56
2022/01/10 06:55:48;;;;;;;113.72;52.93;;;;;;;-6.89;82.45;97775.02;1733193;82;20993;-57
2022/01/10 06:58:16;;;;;;;130.85;59.75;;;;;;;-6.91;82.08;97783.60;1713081;82;20975;-56
2022/01/10 07:00:43;;;;;;;119.93;59.45;;;;;;;-6.98;81.89;97781.34;1714757;82;22135;-56
2022/01/10 07:03:10;;;;;;;103.27;46.83;;;;;;;-7.05;81.59;97786.48;1725686;82;21428;-56
2022/01/10 07:05:37;;;;;;;80.40;39.90;;;;;;;-7.07;81.56;97792.92;1733510;82;21001;-57
2022/01/10 07:08:04;;;;;;;85.57;38.70;;;;;;;-7.10;81.27;97792.75;1718752;82;21004;-57
2022/01/10 07:10:31;;;;;;;94.80;44.35;;;;;;;-7.10;81.19;97800.66;1719670;82;21080;-56
2022/01/10 07:12:58;;;;;;;85.87;39.33;;;;;;;-7.05;81.55;97808.86;1728950;82;21397;-57
2022/01/10 07:15:26;;;;;;;84.92;42.20;;;;;;;-7.11;81.45;97809.55;1732991;82;21017;-57
2022/01/10 07:17:53;;;;;;;127.53;50.90;;;;;;;-7.23;81.67;97815.71;1712039;82;21075;-56
2022/01/10 07:20:21;;;;;;;124.22;56.20;;;;;;;-7.12;81.69;97819.27;1708189;82;21066;-57
2022/01/10 07:22:48;;;;;;;210.02;89.30;;;;;;;-6.99;81.63;97821.35;1727720;82;21126;-57
2022/01/10 07:25:15;;;;;;;106.35;50.12;;;;;;;-6.94;81.17;97820.31;1721134;82;21013;-57
2022/01/10 07:27:41;;;;;;;145.97;63.30;;;;;;;-6.88;81.15;97826.72;1717985;82;21091;-56
2022/01/10 07:30:09;;;;;;;141.85;57.60;;;;;;;-6.87;81.20;97825.72;1716014;82;21090;-56
2022/01/10 07:32:36;;;;;;;92.30;37.40;;;;;;;-6.78;81.83;97837.84;1699283;82;21469;-57
2022/01/10 07:35:05;;;;;;;105.32;48.63;;;;;;;-6.71;81.19;97842.75;1722390;82;20984;-56
2022/01/10 07:37:31;;;;;;;92.82;42.05;;;;;;;-6.80;81.64;97848.25;1717445;82;21402;-56
2022/01/10 07:39:58;;;;;;;128.20;54.18;;;;;;;-6.78;81.39;97848.89;1716505;82;21107;-57
2022/01/10 07:42:25;;;;;;;140.30;56.85;;;;;;;-6.75;81.33;97859.92;1711955;82;21424;-57
2022/01/10 07:44:52;;;;;;;171.25;68.57;;;;;;;-6.71;81.22;97864.33;1720993;82;21114;-57
2022/01/10 07:47:19;;;;;;;190.15;76.87;;;;;;;-6.65;81.16;97859.19;1715165;82;20961;-57
2022/01/10 07:49:46;;;;;;;125.15;55.30;;;;;;;-6.56;81.20;97870.00;1719718;82;21414;-57
2022/01/10 07:52:13;;;;;;;120.37;52.75;;;;;;;-6.48;80.88;97880.17;1715171;82;21182;-56
2022/01/10 07:54:40;;;;;;;102.75;44.95;;;;;;;-6.51;81.45;97881.33;1718965;82;21127;-56
2022/01/10 07:57:06;;;;;;;101.35;46.15;;;;;;;-6.48;81.70;97884.95;1720157;82;20985;-57
2022/01/10 07:59:33;;;;;;;321.57;124.15;;;;;;;-6.38;81.76;97885.53;1718853;82;21207;-57
2022/01/10 08:02:00;;;;;;;159.95;72.60;;;;;;;-6.25;81.22;97891.52;1721153;82;21529;-56
2022/01/10 08:04:27;;;;;;;120.67;53.23;;;;;;;-6.12;81.76;97897.55;1717621;82;21052;-57
2022/01/10 08:06:54;;;;;;;88.17;44.10;;;;;;;-5.96;81.54;97901.38;1724951;82;21060;-57
2022/01/10 08:09:21;;;;;;;94.97;48.10;;;;;;;-5.97;81.03;97912.42;1717290;82;21020;-57
2022/01/10 08:11:48;;;;;;;165.43;69.50;;;;;;;-5.82;81.26;97913.73;1717083;82;21414;-57
2022/01/10 08:14:14;;;;;;;156.07;69.53;;;;;;;-5.68;81.20;97914.78;1719904;82;21674;-57
2022/01/10 08:16:41;;;;;;;116.73;54.85;;;;;;;-5.58;80.89;97917.16;1717463;82;21051;-56
2022/01/10 08:19:08;;;;;;;122.85;59.73;;;;;;;-5.51;80.89;97924.19;1728588;82;20989;-57
2022/01/10 08:21:35;;;;;;;144.15;67.50;;;;;;;-5.45;80.56;97927.94;1711999;82;21051;-57
2022/01/10 08:24:02;;;;;;;277.13;136.92;;;;;;;-5.36;80.65;97934.77;1728414;82;21461;-57
2022/01/10 08:26:29;;;;;;;179.38;86.35;;;;;;;-5.23;80.86;97938.09;1722623;82;21104;-57
2022/01/10 08:28:56;;;;;;;138.57;66.85;;;;;;;-5.09;80.76;97941.25;1718092;82;21135;-58
2022/01/10 08:31:23;;;;;;;139.72;62.60;;;;;;;-4.92;81.05;97945.35;1717326;82;21182;-56
2022/01/10 08:33:50;;;;;;;170.22;75.97;;;;;;;-4.79;80.74;97937.26;1711675;82;20988;-56
2022/01/10 08:36:18;;;;;;;165.77;78.35;;;;;;;-4.65;80.65;97947.83;1714006;82;21075;-56
2022/01/10 08:38:44;;;;;;;267.90;121.42;;;;;;;-4.56;80.29;97955.97;1731618;82;20984;-57
2022/01/10 08:41:11;;;;;;;238.60;110.15;;;;;;;-4.38;80.80;97956.07;1711342;82;21039;-57
2022/01/10 08:43:38;;;;;;;220.05;103.40;;;;;;;-4.26;80.50;97961.21;1734020;82;21725;-57
2022/01/10 08:46:05;;;;;;;188.05;88.35;;;;;;;-4.21;80.37;97966.74;1716362;82;21016;-57
2022/01/10 08:48:32;;;;;;;281.80;123.00;;;;;;;-4.07;80.51;97969.86;1716734;82;20985;-58
2022/01/10 08:50:59;;;;;;;327.57;134.10;;;;;;;-4.01;80.32;97965.14;1714673;82;21068;-56
2022/01/10 08:53:26;;;;;;;247.67;111.22;;;;;;;-3.88;80.31;97968.91;1707410;82;21041;-58
2022/01/10 08:55:53;;;;;;;175.03;76.65;;;;;;;-3.80;80.53;97980.20;1704890;82;21039;-56
2022/01/10 08:58:21;;;;;;;118.93;55.38;;;;;;;-3.69;79.97;97983.66;1715115;82;21457;-57
2022/01/10 09:00:48;;;;;;;118.08;54.23;;;;;;;-3.67;80.24;97972.05;1726120;82;21585;-58
2022/01/10 09:03:16;;;;;;;106.92;54.65;;;;;;;-3.56;80.36;97972.88;1715196;82;21677;-58
2022/01/10 09:05:43;;;;;;;121.00;55.73;;;;;;;-3.57;80.43;97976.55;1697048;82;21048;-57
2022/01/10 09:08:09;;;;;;;112.68;51.95;;;;;;;-3.50;80.57;97978.75;1710122;82;21055;-57
2022/01/10 09:10:36;;;;;;;112.42;53.60;;;;;;;-3.43;80.63;97972.97;1664717;84;21080;-58
2022/01/10 09:13:03;;;;;;;108.50;46.88;;;;;;;-3.30;80.71;97981.55;1715196;82;21091;-57
2022/01/10 09:15:32;;;;;;;110.37;48.60;;;;;;;-3.22;80.42;97980.91;1707436;82;21429;-58
2022/01/10 09:17:59;;;;;;;105.10;45.95;;;;;;;-3.08;80.48;97989.75;1715131;82;25994;-56
2022/01/10 09:20:26;;;;;;;91.97;47.23;;;;;;;-3.07;80.13;97987.95;1711374;82;21067;-57
2022/01/10 09:22:53;;;;;;;104.00;46.37;;;;;;;-2.97;80.26;97993.72;1709575;82;21043;-58
2022/01/10 09:25:20;;;;;;;101.60;44.30;;;;;;;-2.87;80.03;98000.30;1717556;82;21060;-57
2022/01/10 09:27:47;;;;;;;91.12;41.55;;;;;;;-2.80;79.75;97998.20;1715744;82;21112;-57
2022/01/10 09:30:14;;;;;;;104.40;46.42;;;;;;;-2.78;79.46;97996.17;1716737;82;21516;-57
2022/01/10 09:32:41;;;;;;;102.40;49.85;;;;;;;-2.73;79.73;97995.91;1708444;82;21001;-57
2022/01/10 09:35:08;;;;;;;103.75;52.33;;;;;;;-2.61;79.89;98001.47;1714158;82;20989;-57
2022/01/10 09:37:35;;;;;;;105.17;48.10;;;;;;;-2.52;79.74;97996.31;1697946;82;21604;-57
2022/01/10 09:40:03;;;;;;;82.65;39.55;;;;;;;-2.44;79.37;97995.33;1710848;82;21024;-57
2022/01/10 09:42:32;;;;;;;113.12;50.52;;;;;;;-2.52;78.74;97998.97;1716760;82;21433;-56
2022/01/10 09:45:00;;;;;;;111.25;52.48;;;;;;;-2.42;79.21;98007.89;1723986;82;21020;-57
2022/01/10 09:47:26;;;;;;;110.60;50.75;;;;;;;-2.49;78.56;98009.17;1714503;82;21492;-56
2022/01/10 09:49:53;;;;;;;109.87;50.17;;;;;;;-2.39;79.07;98013.64;1725263;82;21162;-56
2022/01/10 09:52:20;;;;;;;103.97;49.75;;;;;;;-2.35;78.86;98015.38;1720298;82;20993;-56
2022/01/10 09:54:48;;;;;;;107.65;50.73;;;;;;;-2.31;78.82;98015.28;1724533;82;20997;-57
2022/01/10 09:57:15;;;;;;;136.82;54.93;;;;;;;-2.24;78.77;98018.78;1725174;82;21056;-57
2022/01/10 09:59:42;;;;;;;102.60;50.80;;;;;;;-2.12;78.68;98023.04;1701130;82;21096;-57
2022/01/10 10:02:10;;;;;;;121.57;55.85;;;;;;;-2.12;78.29;98023.86;1696178;82;22324;-57
2022/01/10 10:04:37;;;;;;;109.60;54.30;;;;;;;-2.09;78.50;98024.78;1720737;82;21941;-57
2022/01/10 10:07:06;;;;;;;110.60;51.45;;;;;;;-2.08;77.86;98020.28;1709437;82;21650;-57
2022/01/10 10:09:34;;;;;;;90.60;42.45;;;;;;;-2.01;78.08;98023.27;1714436;82;21148;-57
2022/01/10 10:12:01;;;;;;;111.65;56.05;;;;;;;-1.93;77.90;98027.59;1718992;82;21412;-57
2022/01/10 10:14:28;;;;;;;131.67;58.78;;;;;;;-1.95;77.66;98032.30;1716547;82;21143;-58
2022/01/10 10:16:56;;;;;;;132.67;63.92;;;;;;;-1.89;77.90;98038.62;1711389;82;21193;-57
2022/01/10 10:19:29;;;;;;;123.20;57.93;;;;;;;-1.88;77.56;98042.91;1713993;82;20976;-56
2022/01/10 10:21:57;;;;;;;125.40;61.08;;;;;;;-1.86;77.64;98045.70;1716265;82;21036;-57
2022/01/10 10:24:24;;;;;;;102.55;49.13;;;;;;;-1.85;77.41;98049.99;1718838;82;20979;-56
2022/01/10 10:26:51;;;;;;;105.47;51.10;;;;;;;-1.80;77.66;98047.53;1722935;82;20997;-56
2022/01/10 10:29:19;;;;;;;103.87;54.08;;;;;;;-1.82;76.48;98057.55;1734870;82;22931;-57
2022/01/10 10:31:55;;;;;;;118.10;55.38;;;;;;;-1.78;77.25;98060.13;1714648;82;21584;-56
2022/01/10 10:34:27;;;;;;;99.07;45.88;;;;;;;-1.74;76.93;98062.69;1715966;82;21052;-56
2022/01/10 10:37:04;;;;;;;108.10;50.85;;;;;;;-1.87;76.27;98067.97;1705374;82;21101;-57
2022/01/10 10:39:33;;;;;;;115.47;53.85;;;;;;;-1.77;77.16;98063.61;1711791;82;21067;-56
2022/01/10 10:42:03;;;;;;;101.15;51.80;;;;;;;-1.71;76.86;98066.77;1718814;82;21064;-56
2022/01/10 10:44:31;;;;;;;119.00;56.55;;;;;;;-1.75;76.63;98073.52;1719933;82;21043;-55
2022/01/10 10:46:58;;;;;;;88.30;42.13;;;;;;;-1.67;76.77;98077.33;1719739;82;21498;-56
2022/01/10 10:49:34;;;;;;;106.10;51.75;;;;;;;-1.60;76.64;98086.14;1719535;80;21532;-56
2022/01/10 10:52:01;;;;;;;107.70;49.77;;;;;;;-1.71;76.44;98086.70;1718611;82;21436;-56
2022/01/10 10:54:31;;;;;;;106.25;50.80;;;;;;;-1.92;76.04;98097.47;1719474;82;21016;-56
2022/01/10 10:56:59;;;;;;;109.87;44.73;;;;;;;-2.01;76.21;98101.62;1718253;82;21154;-56
2022/01/10 10:59:30;;;;;;;115.57;51.67;;;;;;;-2.01;76.36;98091.50;1714048;82;21106;-56
2022/01/10 11:01:56;;;;;;;111.47;51.88;;;;;;;-2.04;76.29;98102.02;1711750;82;21493;-56
2022/01/10 11:04:23;;;;;;;113.08;48.42;;;;;;;-2.08;76.41;98098.11;1721051;82;21244;-56
2022/01/10 11:06:50;;;;;;;95.67;50.65;;;;;;;-2.08;76.37;98099.94;1718877;82;21556;-57
2022/01/10 11:09:18;;;;;;;99.83;44.83;;;;;;;-1.98;76.53;98103.05;1718341;82;21001;-57
2022/01/10 11:11:45;;;;;;;105.15;52.00;;;;;;;-2.03;75.62;98102.33;1717790;82;21046;-56
2022/01/10 11:14:17;;;;;;;108.57;48.87;;;;;;;-1.82;76.59;98104.55;1719833;82;20993;-56
2022/01/10 11:16:44;;;;;;;101.67;47.65;;;;;;;-1.75;75.88;98105.41;1716816;82;21187;-57
2022/01/10 11:19:16;;;;;;;94.72;41.33;;;;;;;-1.89;75.66;98115.66;1718062;82;21044;-57
2022/01/10 11:22:06;;;;;;;89.20;40.58;;;;;;;-1.84;75.38;98120.69;1715579;82;21034;-56
2022/01/10 11:24:53;;;;;;;79.45;38.20;;;;;;;-1.72;75.35;98121.75;1722873;82;20993;-56
2022/01/10 11:27:34;;;;;;;68.50;34.55;;;;;;;-1.59;73.97;98134.28;1711435;82;20977;-56
2022/01/10 11:30:23;;;;;;;82.12;39.65;;;;;;;-1.48;74.24;98131.55;1712733;82;22255;-56